Time,TemperatureF,DewpointF,PressureIn,WindDirection,WindDirectionDegrees,WindSpeedMPH,WindSpeedGustMPH,Humidity,HourlyPrecipIn,Conditions,Clouds,dailyrainin,SolarRadiationWatts/m^2,SoftwareType,DateUTC
2013-11-19 01:21:00,45.0,28.0,-100.00,South,176,5.0,9.0,51,0.00,,,-99.99,0.000000,,2013-11-19 08:21:00,
2013-11-19 01:50:00,42.0,27.0,-100.00,SSW,197,1.0,2.0,55,0.00,,,-99.99,0.000000,,2013-11-19 08:50:00,
2013-11-19 02:21:00,42.0,27.0,-100.00,SSW,197,1.0,2.0,55,0.00,,,-99.99,0.000000,,2013-11-19 09:21:00,
2013-11-19 02:33:00,42.0,27.0,-100.00,SSW,197,1.0,2.0,55,0.00,,,-99.99,0.000000,,2013-11-19 09:33:00,
2013-11-19 02:43:00,42.0,27.0,-100.00,SSW,197,1.0,2.0,55,0.00,,,-99.99,0.000000,,2013-11-19 09:43:00,
2013-11-19 06:50:00,43.0,28.0,-100.00,SW,219,5.0,8.0,54,0.00,,,-99.99,0.000000,,2013-11-19 13:50:00,
2013-11-19 06:52:00,43.0,29.0,-100.00,SSW,205,3.0,5.0,57,0.00,,,-99.99,0.000000,,2013-11-19 13:52:00,
2013-11-19 07:21:00,43.0,28.0,-100.00,SW,219,5.0,8.0,54,0.00,,,-99.99,0.000000,,2013-11-19 14:21:00,
2013-11-19 07:32:00,43.0,28.0,-100.00,SW,219,5.0,8.0,54,0.00,,,-99.99,0.000000,,2013-11-19 14:32:00,
2013-11-19 07:42:00,43.0,28.0,-100.00,SW,219,5.0,8.0,54,0.00,,,-99.99,0.000000,,2013-11-19 14:42:00,
2013-11-19 10:22:00,53.0,32.0,-100.00,SE,127,8.0,12.0,44,0.00,,,-99.99,171.000000,,2013-11-19 17:22:00,
2013-11-19 11:22:00,54.0,32.0,-100.00,SSE,164,6.0,10.0,43,0.00,,,-99.99,147.000000,,2013-11-19 18:22:00,
2013-11-19 11:50:00,52.0,37.0,-100.00,WSW,238,5.0,9.0,56,0.00,,,-99.99,70.000000,,2013-11-19 18:50:00,
2013-11-19 12:21:00,52.0,37.0,-100.00,WSW,238,5.0,9.0,56,0.00,,,-99.99,70.000000,,2013-11-19 19:21:00,
2013-11-19 12:31:00,52.0,37.0,-100.00,WSW,238,5.0,9.0,56,0.00,,,-99.99,70.000000,,2013-11-19 19:31:00,
2013-11-19 12:41:00,52.0,37.0,-100.00,WSW,238,5.0,9.0,56,0.00,,,-99.99,70.000000,,2013-11-19 19:41:00,
2013-11-19 15:22:00,50.0,43.0,-100.00,ENE,75,1.0,2.0,77,0.00,,,-99.99,76.000000,,2013-11-19 22:22:00,
2013-11-19 16:50:00,46.0,39.0,-100.00,NW,309,3.0,5.0,78,0.00,,,-99.99,5.000000,,2013-11-19 23:50:00,
2013-11-19 17:21:00,46.0,39.0,-100.00,NW,309,3.0,5.0,78,0.00,,,-99.99,5.000000,,2013-11-20 00:21:00,
2013-11-19 17:32:00,46.0,39.0,-100.00,NW,309,3.0,5.0,78,0.00,,,-99.99,5.000000,,2013-11-20 00:32:00,
2013-11-19 17:42:00,46.0,39.0,-100.00,NW,309,3.0,5.0,78,0.00,,,-99.99,5.000000,,2013-11-20 00:42:00,
2013-11-19 21:50:00,39.0,38.0,-100.00,West,272,2.0,3.0,94,0.00,,,-99.99,0.000000,,2013-11-20 04:50:00,
2013-11-19 22:22:00,39.0,38.0,-100.00,West,272,2.0,3.0,94,0.00,,,-99.99,0.000000,,2013-11-20 05:22:00,
2013-11-19 22:33:00,39.0,38.0,-100.00,West,272,2.0,3.0,94,0.00,,,-99.99,0.000000,,2013-11-20 05:33:00,
2013-11-19 22:43:00,39.0,38.0,-100.00,West,272,2.0,3.0,94,0.00,,,-99.99,0.000000,,2013-11-20 05:43:00,
2013-11-19 23:52:00,39.0,36.0,-100.00,SW,220,1.0,2.0,91,0.00,,,-99.99,0.000000,,2013-11-20 06:52:00,